sensor_id;sensor_type;location;lat;lon;timestamp;temperature;humidity
16136;DHT22;8173;48.354;9.248;2023-06-10T00:01:44;12.10;99.90
16136;DHT22;8173;48.354;9.248;2023-06-10T00:04:13;12.20;99.90
16136;DHT22;8173;48.354;9.248;2023-06-10T00:06:40;12.20;99.90
16136;DHT22;8173;48.354;9.248;2023-06-10T00:09:07;12.20;99.90
16136;DHT22;8173;48.354;9.248;2023-06-10T00:11:35;12.20;99.90
16136;DHT22;8173;48.354;9.248;2023-06-10T00:14:03;12.00;99.90
16136;DHT22;8173;48.354;9.248;2023-06-10T00:16:31;11.80;99.90
16136;DHT22;8173;48.354;9.248;2023-06-10T00:18:59;11.70;99.90
16136;DHT22;8173;48.354;9.248;2023-06-10T00:21:27;11.60;99.90
16136;DHT22;8173;48.354;9.248;2023-06-10T00:23:53;11.60;99.90
16136;DHT22;8173;48.354;9.248;2023-06-10T00:26:21;11.50;99.90
16136;DHT22;8173;48.354;9.248;2023-06-10T00:28:47;11.40;99.90
16136;DHT22;8173;48.354;9.248;2023-06-10T00:31:14;11.40;99.90
16136;DHT22;8173;48.354;9.248;2023-06-10T00:33:42;11.40;99.90
16136;DHT22;8173;48.354;9.248;2023-06-10T00:36:09;11.30;99.90
16136;DHT22;8173;48.354;9.248;2023-06-10T00:38:36;11.30;99.90
16136;DHT22;8173;48.354;9.248;2023-06-10T00:41:02;11.20;99.90
16136;DHT22;8173;48.354;9.248;2023-06-10T00:43:29;11.30;99.90
16136;DHT22;8173;48.354;9.248;2023-06-10T00:45:56;11.20;99.90
16136;DHT22;8173;48.354;9.248;2023-06-10T00:48:23;11.10;99.90
16136;DHT22;8173;48.354;9.248;2023-06-10T00:50:51;11.10;99.90
16136;DHT22;8173;48.354;9.248;2023-06-10T00:53:18;11.00;99.90
16136;DHT22;8173;48.354;9.248;2023-06-10T00:55:46;11.00;99.90
16136;DHT22;8173;48.354;9.248;2023-06-10T00:58:13;11.00;99.90
16136;DHT22;8173;48.354;9.248;2023-06-10T01:00:41;11.00;99.90
16136;DHT22;8173;48.354;9.248;2023-06-10T01:03:07;11.00;99.90
16136;DHT22;8173;48.354;9.248;2023-06-10T01:05:35;11.00;99.90
16136;DHT22;8173;48.354;9.248;2023-06-10T01:08:07;10.90;99.90
16136;DHT22;8173;48.354;9.248;2023-06-10T01:10:38;10.90;99.90
16136;DHT22;8173;48.354;9.248;2023-06-10T01:13:10;10.90;99.90
16136;DHT22;8173;48.354;9.248;2023-06-10T01:15:38;10.80;99.90
16136;DHT22;8173;48.354;9.248;2023-06-10T01:18:06;10.80;99.90
16136;DHT22;8173;48.354;9.248;2023-06-10T01:20:35;10.70;99.90
16136;DHT22;8173;48.354;9.248;2023-06-10T01:23:07;10.60;99.90
16136;DHT22;8173;48.354;9.248;2023-06-10T01:25:37;10.60;99.90
16136;DHT22;8173;48.354;9.248;2023-06-10T01:28:11;11.00;99.90
16136;DHT22;8173;48.354;9.248;2023-06-10T01:30:47;10.70;99.90
16136;DHT22;8173;48.354;9.248;2023-06-10T01:33:18;10.80;99.90
16136;DHT22;8173;48.354;9.248;2023-06-10T01:35:50;10.90;99.90
16136;DHT22;8173;48.354;9.248;2023-06-10T01:38:19;10.80;99.90
16136;DHT22;8173;48.354;9.248;2023-06-10T01:40:48;10.80;99.90
16136;DHT22;8173;48.354;9.248;2023-06-10T01:43:15;11.30;99.90
16136;DHT22;8173;48.354;9.248;2023-06-10T01:45:42;10.70;99.90
16136;DHT22;8173;48.354;9.248;2023-06-10T01:48:09;11.00;99.90
16136;DHT22;8173;48.354;9.248;2023-06-10T01:50:36;10.60;99.90
16136;DHT22;8173;48.354;9.248;2023-06-10T01:53:03;10.50;99.90
16136;DHT22;8173;48.354;9.248;2023-06-10T01:55:32;10.60;99.90
16136;DHT22;8173;48.354;9.248;2023-06-10T01:57:58;10.50;99.90
16136;DHT22;8173;48.354;9.248;2023-06-10T02:00:25;10.40;99.90
16136;DHT22;8173;48.354;9.248;2023-06-10T02:02:52;10.40;99.90
16136;DHT22;8173;48.354;9.248;2023-06-10T02:05:19;10.50;99.90
16136;DHT22;8173;48.354;9.248;2023-06-10T02:07:45;10.40;99.90
16136;DHT22;8173;48.354;9.248;2023-06-10T02:10:12;10.60;99.90
16136;DHT22;8173;48.354;9.248;2023-06-10T02:12:40;10.50;99.90
16136;DHT22;8173;48.354;9.248;2023-06-10T02:15:07;10.60;99.90
16136;DHT22;8173;48.354;9.248;2023-06-10T02:17:33;10.50;99.90
16136;DHT22;8173;48.354;9.248;2023-06-10T02:20:00;10.50;99.90
16136;DHT22;8173;48.354;9.248;2023-06-10T02:22:29;10.90;99.90
16136;DHT22;8173;48.354;9.248;2023-06-10T02:24:56;10.30;99.90
16136;DHT22;8173;48.354;9.248;2023-06-10T02:27:22;10.40;99.90
16136;DHT22;8173;48.354;9.248;2023-06-10T02:29:51;10.30;99.90
16136;DHT22;8173;48.354;9.248;2023-06-10T02:32:18;10.20;99.90
16136;DHT22;8173;48.354;9.248;2023-06-10T02:34:44;10.60;99.90
16136;DHT22;8173;48.354;9.248;2023-06-10T02:37:12;10.20;99.90
16136;DHT22;8173;48.354;9.248;2023-06-10T02:39:38;10.40;99.90
16136;DHT22;8173;48.354;9.248;2023-06-10T02:42:06;10.30;99.90
16136;DHT22;8173;48.354;9.248;2023-06-10T02:44:33;10.10;99.90
16136;DHT22;8173;48.354;9.248;2023-06-10T02:47:01;10.10;99.90
16136;DHT22;8173;48.354;9.248;2023-06-10T02:49:28;10.10;99.90
16136;DHT22;8173;48.354;9.248;2023-06-10T02:51:55;10.10;99.90
16136;DHT22;8173;48.354;9.248;2023-06-10T02:54:22;10.90;99.90
16136;DHT22;8173;48.354;9.248;2023-06-10T02:56:49;10.20;99.90
16136;DHT22;8173;48.354;9.248;2023-06-10T02:59:16;10.10;99.90
16136;DHT22;8173;48.354;9.248;2023-06-10T03:01:42;10.20;99.90
16136;DHT22;8173;48.354;9.248;2023-06-10T03:04:10;10.10;99.90
16136;DHT22;8173;48.354;9.248;2023-06-10T03:06:39;10.00;99.90
16136;DHT22;8173;48.354;9.248;2023-06-10T03:09:06;9.90;99.90
16136;DHT22;8173;48.354;9.248;2023-06-10T03:11:33;9.80;99.90
16136;DHT22;8173;48.354;9.248;2023-06-10T03:14:00;9.70;99.90
16136;DHT22;8173;48.354;9.248;2023-06-10T03:16:27;9.60;99.90
16136;DHT22;8173;48.354;9.248;2023-06-10T03:18:55;9.60;99.90
16136;DHT22;8173;48.354;9.248;2023-06-10T03:21:23;9.50;99.90
16136;DHT22;8173;48.354;9.248;2023-06-10T03:23:51;9.50;99.90
16136;DHT22;8173;48.354;9.248;2023-06-10T03:26:17;9.50;99.90
16136;DHT22;8173;48.354;9.248;2023-06-10T03:28:47;9.50;99.90
16136;DHT22;8173;48.354;9.248;2023-06-10T03:31:13;9.60;99.90
16136;DHT22;8173;48.354;9.248;2023-06-10T03:33:42;9.50;99.90
16136;DHT22;8173;48.354;9.248;2023-06-10T03:36:08;9.50;99.90
16136;DHT22;8173;48.354;9.248;2023-06-10T03:38:36;10.10;99.90
16136;DHT22;8173;48.354;9.248;2023-06-10T03:41:03;9.60;99.90
16136;DHT22;8173;48.354;9.248;2023-06-10T03:43:30;9.60;99.90
16136;DHT22;8173;48.354;9.248;2023-06-10T03:45:57;10.60;99.90
16136;DHT22;8173;48.354;9.248;2023-06-10T03:48:24;9.60;99.90
16136;DHT22;8173;48.354;9.248;2023-06-10T03:50:51;9.60;99.90
16136;DHT22;8173;48.354;9.248;2023-06-10T03:53:18;9.60;99.90
16136;DHT22;8173;48.354;9.248;2023-06-10T03:55:46;9.60;99.90
16136;DHT22;8173;48.354;9.248;2023-06-10T03:58:13;9.50;99.90
16136;DHT22;8173;48.354;9.248;2023-06-10T04:00:40;9.50;99.90
16136;DHT22;8173;48.354;9.248;2023-06-10T04:03:07;9.50;99.90
16136;DHT22;8173;48.354;9.248;2023-06-10T04:05:39;9.50;99.90
16136;DHT22;8173;48.354;9.248;2023-06-10T04:08:06;9.70;99.90
16136;DHT22;8173;48.354;9.248;2023-06-10T04:10:33;9.00;99.90
16136;DHT22;8173;48.354;9.248;2023-06-10T04:13:01;9.80;99.90
16136;DHT22;8173;48.354;9.248;2023-06-10T04:15:28;9.90;99.90
16136;DHT22;8173;48.354;9.248;2023-06-10T04:17:58;10.00;99.90
16136;DHT22;8173;48.354;9.248;2023-06-10T04:20:25;10.10;99.90
16136;DHT22;8173;48.354;9.248;2023-06-10T04:22:51;10.20;99.90
16136;DHT22;8173;48.354;9.248;2023-06-10T04:25:18;10.30;99.90
16136;DHT22;8173;48.354;9.248;2023-06-10T04:27:45;10.50;99.90
16136;DHT22;8173;48.354;9.248;2023-06-10T04:30:14;10.80;99.90
16136;DHT22;8173;48.354;9.248;2023-06-10T04:32:41;10.90;99.90
16136;DHT22;8173;48.354;9.248;2023-06-10T04:35:10;10.90;99.90
16136;DHT22;8173;48.354;9.248;2023-06-10T04:37:37;11.10;99.90
16136;DHT22;8173;48.354;9.248;2023-06-10T04:40:05;11.30;99.90
16136;DHT22;8173;48.354;9.248;2023-06-10T04:42:32;11.50;99.90
16136;DHT22;8173;48.354;9.248;2023-06-10T04:44:59;11.70;99.90
16136;DHT22;8173;48.354;9.248;2023-06-10T04:47:27;12.50;99.90
16136;DHT22;8173;48.354;9.248;2023-06-10T04:49:54;13.20;99.90
16136;DHT22;8173;48.354;9.248;2023-06-10T04:52:23;15.20;99.90
16136;DHT22;8173;48.354;9.248;2023-06-10T04:54:51;15.20;99.90
16136;DHT22;8173;48.354;9.248;2023-06-10T04:57:17;16.20;99.90
16136;DHT22;8173;48.354;9.248;2023-06-10T04:59:45;16.80;99.90
16136;DHT22;8173;48.354;9.248;2023-06-10T05:02:12;17.50;99.90
16136;DHT22;8173;48.354;9.248;2023-06-10T05:04:40;18.00;99.90
16136;DHT22;8173;48.354;9.248;2023-06-10T05:07:07;18.30;99.90
16136;DHT22;8173;48.354;9.248;2023-06-10T05:09:33;18.60;99.90
16136;DHT22;8173;48.354;9.248;2023-06-10T05:12:00;18.70;99.90
16136;DHT22;8173;48.354;9.248;2023-06-10T05:14:27;18.70;99.90
16136;DHT22;8173;48.354;9.248;2023-06-10T05:16:54;18.90;99.90
16136;DHT22;8173;48.354;9.248;2023-06-10T05:19:21;19.20;99.90
16136;DHT22;8173;48.354;9.248;2023-06-10T05:21:49;19.50;99.90
16136;DHT22;8173;48.354;9.248;2023-06-10T05:24:16;19.80;99.90
16136;DHT22;8173;48.354;9.248;2023-06-10T05:26:42;20.20;99.90
16136;DHT22;8173;48.354;9.248;2023-06-10T05:29:09;20.30;99.90
16136;DHT22;8173;48.354;9.248;2023-06-10T05:31:36;20.60;99.90
16136;DHT22;8173;48.354;9.248;2023-06-10T05:34:03;20.80;99.90
16136;DHT22;8173;48.354;9.248;2023-06-10T05:36:30;21.00;99.90
16136;DHT22;8173;48.354;9.248;2023-06-10T05:38:59;21.20;99.90
16136;DHT22;8173;48.354;9.248;2023-06-10T05:41:26;21.20;99.90
16136;DHT22;8173;48.354;9.248;2023-06-10T05:43:52;21.90;99.90
16136;DHT22;8173;48.354;9.248;2023-06-10T05:46:19;22.20;99.90
16136;DHT22;8173;48.354;9.248;2023-06-10T05:48:46;22.50;99.90
16136;DHT22;8173;48.354;9.248;2023-06-10T05:51:13;22.80;99.90
16136;DHT22;8173;48.354;9.248;2023-06-10T05:53:39;22.50;99.90
16136;DHT22;8173;48.354;9.248;2023-06-10T05:56:08;22.60;99.90
16136;DHT22;8173;48.354;9.248;2023-06-10T05:58:34;23.00;99.90
16136;DHT22;8173;48.354;9.248;2023-06-10T06:01:01;23.20;99.90
16136;DHT22;8173;48.354;9.248;2023-06-10T06:03:28;23.50;99.90
16136;DHT22;8173;48.354;9.248;2023-06-10T06:05:55;23.90;99.90
16136;DHT22;8173;48.354;9.248;2023-06-10T06:08:21;24.40;99.90
16136;DHT22;8173;48.354;9.248;2023-06-10T06:10:48;24.60;99.90
16136;DHT22;8173;48.354;9.248;2023-06-10T06:13:16;24.50;99.90
16136;DHT22;8173;48.354;9.248;2023-06-10T06:15:43;24.70;99.90
16136;DHT22;8173;48.354;9.248;2023-06-10T06:18:09;24.90;99.90
16136;DHT22;8173;48.354;9.248;2023-06-10T06:20:36;24.50;99.90
16136;DHT22;8173;48.354;9.248;2023-06-10T06:23:03;24.40;99.90
16136;DHT22;8173;48.354;9.248;2023-06-10T06:25:30;24.40;99.90
16136;DHT22;8173;48.354;9.248;2023-06-10T06:27:56;24.40;99.90
16136;DHT22;8173;48.354;9.248;2023-06-10T06:30:24;24.40;99.90
16136;DHT22;8173;48.354;9.248;2023-06-10T06:32:51;24.10;99.90
16136;DHT22;8173;48.354;9.248;2023-06-10T06:35:18;23.90;99.90
16136;DHT22;8173;48.354;9.248;2023-06-10T06:37:45;23.90;99.90
16136;DHT22;8173;48.354;9.248;2023-06-10T06:40:12;23.80;99.90
16136;DHT22;8173;48.354;9.248;2023-06-10T06:42:39;24.00;99.90
16136;DHT22;8173;48.354;9.248;2023-06-10T06:45:06;24.20;99.90
16136;DHT22;8173;48.354;9.248;2023-06-10T06:47:34;24.50;99.90
16136;DHT22;8173;48.354;9.248;2023-06-10T06:50:01;24.60;99.90
16136;DHT22;8173;48.354;9.248;2023-06-10T06:52:28;24.90;99.90
16136;DHT22;8173;48.354;9.248;2023-06-10T06:54:55;25.10;99.90
16136;DHT22;8173;48.354;9.248;2023-06-10T06:57:21;25.10;99.90
16136;DHT22;8173;48.354;9.248;2023-06-10T06:59:48;25.10;99.90
16136;DHT22;8173;48.354;9.248;2023-06-10T07:02:15;25.40;99.90
16136;DHT22;8173;48.354;9.248;2023-06-10T07:04:43;25.80;99.90
16136;DHT22;8173;48.354;9.248;2023-06-10T07:07:11;25.80;99.90
16136;DHT22;8173;48.354;9.248;2023-06-10T07:09:38;25.90;99.90
16136;DHT22;8173;48.354;9.248;2023-06-10T07:12:06;26.00;99.90
16136;DHT22;8173;48.354;9.248;2023-06-10T07:14:33;25.90;99.90
16136;DHT22;8173;48.354;9.248;2023-06-10T07:17:00;25.80;99.90
16136;DHT22;8173;48.354;9.248;2023-06-10T07:19:26;26.20;99.90
16136;DHT22;8173;48.354;9.248;2023-06-10T07:24:21;26.30;99.90
16136;DHT22;8173;48.354;9.248;2023-06-10T07:26:48;26.80;99.90
16136;DHT22;8173;48.354;9.248;2023-06-10T07:29:15;27.10;99.90
16136;DHT22;8173;48.354;9.248;2023-06-10T07:31:42;27.10;99.90
16136;DHT22;8173;48.354;9.248;2023-06-10T07:34:08;26.40;99.90
16136;DHT22;8173;48.354;9.248;2023-06-10T07:36:35;26.20;99.90
16136;DHT22;8173;48.354;9.248;2023-06-10T07:39:04;25.60;99.90
16136;DHT22;8173;48.354;9.248;2023-06-10T07:41:31;25.40;99.90
16136;DHT22;8173;48.354;9.248;2023-06-10T07:43:58;25.10;99.90
16136;DHT22;8173;48.354;9.248;2023-06-10T07:46:25;25.40;99.90
16136;DHT22;8173;48.354;9.248;2023-06-10T07:48:53;26.00;99.90
16136;DHT22;8173;48.354;9.248;2023-06-10T07:51:21;26.20;99.90
16136;DHT22;8173;48.354;9.248;2023-06-10T07:53:48;26.80;99.90
16136;DHT22;8173;48.354;9.248;2023-06-10T07:56:16;27.00;99.90
16136;DHT22;8173;48.354;9.248;2023-06-10T07:58:42;26.60;99.90
16136;DHT22;8173;48.354;9.248;2023-06-10T08:01:09;26.10;99.90
16136;DHT22;8173;48.354;9.248;2023-06-10T08:03:36;26.10;99.90
16136;DHT22;8173;48.354;9.248;2023-06-10T08:06:03;25.60;99.90
16136;DHT22;8173;48.354;9.248;2023-06-10T08:08:31;25.70;99.90
16136;DHT22;8173;48.354;9.248;2023-06-10T08:10:57;26.20;99.90
16136;DHT22;8173;48.354;9.248;2023-06-10T08:13:25;25.90;99.90
16136;DHT22;8173;48.354;9.248;2023-06-10T08:15:52;25.70;99.90
16136;DHT22;8173;48.354;9.248;2023-06-10T08:18:20;26.30;99.90
16136;DHT22;8173;48.354;9.248;2023-06-10T08:20:47;26.70;99.90
16136;DHT22;8173;48.354;9.248;2023-06-10T08:23:14;26.80;99.90
16136;DHT22;8173;48.354;9.248;2023-06-10T08:25:41;26.50;99.90
16136;DHT22;8173;48.354;9.248;2023-06-10T08:28:07;26.30;99.90
16136;DHT22;8173;48.354;9.248;2023-06-10T08:30:35;26.90;99.90
16136;DHT22;8173;48.354;9.248;2023-06-10T08:33:02;27.70;99.90
16136;DHT22;8173;48.354;9.248;2023-06-10T08:35:29;27.90;99.90
16136;DHT22;8173;48.354;9.248;2023-06-10T08:37:56;28.10;98.60
16136;DHT22;8173;48.354;9.248;2023-06-10T08:42:59;26.60;96.80
16136;DHT22;8173;48.354;9.248;2023-06-10T08:45:29;26.70;98.90
16136;DHT22;8173;48.354;9.248;2023-06-10T08:47:59;27.00;97.00
16136;DHT22;8173;48.354;9.248;2023-06-10T08:50:28;27.30;96.50
16136;DHT22;8173;48.354;9.248;2023-06-10T08:52:57;27.10;94.60
16136;DHT22;8173;48.354;9.248;2023-06-10T08:55:29;26.90;95.30
16136;DHT22;8173;48.354;9.248;2023-06-10T08:57:57;26.20;97.20
16136;DHT22;8173;48.354;9.248;2023-06-10T09:00:26;26.40;97.50
16136;DHT22;8173;48.354;9.248;2023-06-10T09:02:53;26.70;95.70
16136;DHT22;8173;48.354;9.248;2023-06-10T09:05:22;26.80;96.30
16136;DHT22;8173;48.354;9.248;2023-06-10T09:07:49;27.10;98.60
16136;DHT22;8173;48.354;9.248;2023-06-10T09:10:17;26.50;95.40
16136;DHT22;8173;48.354;9.248;2023-06-10T09:12:44;26.00;99.60
16136;DHT22;8173;48.354;9.248;2023-06-10T09:15:11;26.00;96.80
16136;DHT22;8173;48.354;9.248;2023-06-10T09:17:40;25.70;97.80
16136;DHT22;8173;48.354;9.248;2023-06-10T09:20:07;26.00;97.60
16136;DHT22;8173;48.354;9.248;2023-06-10T09:22:36;26.60;96.60
16136;DHT22;8173;48.354;9.248;2023-06-10T09:25:03;26.00;96.00
16136;DHT22;8173;48.354;9.248;2023-06-10T09:27:31;25.90;98.10
16136;DHT22;8173;48.354;9.248;2023-06-10T09:29:58;26.70;98.40
16136;DHT22;8173;48.354;9.248;2023-06-10T09:32:26;27.20;94.70
16136;DHT22;8173;48.354;9.248;2023-06-10T09:34:54;27.20;94.80
16136;DHT22;8173;48.354;9.248;2023-06-10T09:37:21;26.60;94.50
16136;DHT22;8173;48.354;9.248;2023-06-10T09:40:04;26.60;94.90
16136;DHT22;8173;48.354;9.248;2023-06-10T09:42:32;26.60;97.00
16136;DHT22;8173;48.354;9.248;2023-06-10T09:45:00;26.70;96.80
16136;DHT22;8173;48.354;9.248;2023-06-10T09:47:27;27.20;95.80
16136;DHT22;8173;48.354;9.248;2023-06-10T09:49:54;27.30;95.40
16136;DHT22;8173;48.354;9.248;2023-06-10T09:52:24;27.40;93.10
16136;DHT22;8173;48.354;9.248;2023-06-10T09:54:51;27.20;93.30
16136;DHT22;8173;48.354;9.248;2023-06-10T09:57:20;27.50;94.70
16136;DHT22;8173;48.354;9.248;2023-06-10T09:59:47;27.50;94.10
16136;DHT22;8173;48.354;9.248;2023-06-10T10:02:14;27.70;92.80
16136;DHT22;8173;48.354;9.248;2023-06-10T10:04:42;27.60;92.90
16136;DHT22;8173;48.354;9.248;2023-06-10T10:07:09;27.60;95.70
16136;DHT22;8173;48.354;9.248;2023-06-10T10:09:36;27.50;92.60
16136;DHT22;8173;48.354;9.248;2023-06-10T10:12:05;27.90;95.30
16136;DHT22;8173;48.354;9.248;2023-06-10T10:14:37;27.90;96.20
16136;DHT22;8173;48.354;9.248;2023-06-10T10:17:07;28.80;93.50
16136;DHT22;8173;48.354;9.248;2023-06-10T10:19:39;28.70;91.50
16136;DHT22;8173;48.354;9.248;2023-06-10T10:22:08;27.80;92.20
16136;DHT22;8173;48.354;9.248;2023-06-10T10:24:40;27.70;92.40
16136;DHT22;8173;48.354;9.248;2023-06-10T10:27:14;28.10;93.30
16136;DHT22;8173;48.354;9.248;2023-06-10T10:29:47;27.10;92.20
16136;DHT22;8173;48.354;9.248;2023-06-10T10:32:14;27.30;92.70
16136;DHT22;8173;48.354;9.248;2023-06-10T10:34:48;27.40;93.40
16136;DHT22;8173;48.354;9.248;2023-06-10T10:37:17;26.80;93.70
16136;DHT22;8173;48.354;9.248;2023-06-10T10:39:45;26.40;93.30
16136;DHT22;8173;48.354;9.248;2023-06-10T10:42:12;26.90;94.30
16136;DHT22;8173;48.354;9.248;2023-06-10T10:44:40;27.40;93.00
16136;DHT22;8173;48.354;9.248;2023-06-10T10:47:09;27.30;94.40
16136;DHT22;8173;48.354;9.248;2023-06-10T10:49:37;26.70;94.10
16136;DHT22;8173;48.354;9.248;2023-06-10T10:52:04;26.20;94.70
16136;DHT22;8173;48.354;9.248;2023-06-10T10:54:33;26.70;96.00
16136;DHT22;8173;48.354;9.248;2023-06-10T10:57:13;26.80;95.40
16136;DHT22;8173;48.354;9.248;2023-06-10T11:00:01;26.70;96.80
16136;DHT22;8173;48.354;9.248;2023-06-10T11:02:40;27.40;95.00
16136;DHT22;8173;48.354;9.248;2023-06-10T11:05:09;27.50;94.60
16136;DHT22;8173;48.354;9.248;2023-06-10T11:10:07;27.20;92.40
16136;DHT22;8173;48.354;9.248;2023-06-10T11:12:50;27.00;94.50
16136;DHT22;8173;48.354;9.248;2023-06-10T11:15:22;27.40;95.10
16136;DHT22;8173;48.354;9.248;2023-06-10T11:18:15;27.90;93.20
16136;DHT22;8173;48.354;9.248;2023-06-10T11:20:52;28.40;94.20
16136;DHT22;8173;48.354;9.248;2023-06-10T11:23:41;28.40;94.90
16136;DHT22;8173;48.354;9.248;2023-06-10T11:26:30;27.70;93.60
16136;DHT22;8173;48.354;9.248;2023-06-10T11:29:07;26.60;94.40
16136;DHT22;8173;48.354;9.248;2023-06-10T11:31:44;26.10;94.60
16136;DHT22;8173;48.354;9.248;2023-06-10T11:34:13;26.20;95.00
16136;DHT22;8173;48.354;9.248;2023-06-10T11:36:41;25.90;96.70
16136;DHT22;8173;48.354;9.248;2023-06-10T11:39:10;25.70;95.50
16136;DHT22;8173;48.354;9.248;2023-06-10T11:41:38;26.40;96.20
16136;DHT22;8173;48.354;9.248;2023-06-10T11:44:08;27.30;95.70
16136;DHT22;8173;48.354;9.248;2023-06-10T11:46:36;28.30;94.50
16136;DHT22;8173;48.354;9.248;2023-06-10T11:49:04;28.60;93.70
16136;DHT22;8173;48.354;9.248;2023-06-10T11:51:34;27.90;92.30
16136;DHT22;8173;48.354;9.248;2023-06-10T11:54:02;28.40;94.60
16136;DHT22;8173;48.354;9.248;2023-06-10T11:56:30;28.10;92.80
16136;DHT22;8173;48.354;9.248;2023-06-10T11:58:59;26.90;93.90
16136;DHT22;8173;48.354;9.248;2023-06-10T12:01:30;26.10;93.70
16136;DHT22;8173;48.354;9.248;2023-06-10T12:04:01;25.60;95.40
16136;DHT22;8173;48.354;9.248;2023-06-10T12:06:39;26.00;95.00
16136;DHT22;8173;48.354;9.248;2023-06-10T12:09:07;27.30;94.80
16136;DHT22;8173;48.354;9.248;2023-06-10T12:11:34;27.10;93.00
16136;DHT22;8173;48.354;9.248;2023-06-10T12:14:01;26.80;94.50
16136;DHT22;8173;48.354;9.248;2023-06-10T12:16:29;27.00;93.50
16136;DHT22;8173;48.354;9.248;2023-06-10T12:19:01;27.00;95.00
16136;DHT22;8173;48.354;9.248;2023-06-10T12:21:29;27.40;92.70
16136;DHT22;8173;48.354;9.248;2023-06-10T12:24:07;28.00;92.80
16136;DHT22;8173;48.354;9.248;2023-06-10T12:26:39;28.70;92.40
16136;DHT22;8173;48.354;9.248;2023-06-10T12:29:20;28.60;90.00
16136;DHT22;8173;48.354;9.248;2023-06-10T12:31:59;28.70;90.00
16136;DHT22;8173;48.354;9.248;2023-06-10T12:34:36;28.80;86.70
16136;DHT22;8173;48.354;9.248;2023-06-10T12:37:04;28.40;87.50
16136;DHT22;8173;48.354;9.248;2023-06-10T12:39:33;28.50;92.50
16136;DHT22;8173;48.354;9.248;2023-06-10T12:42:01;28.90;90.80
16136;DHT22;8173;48.354;9.248;2023-06-10T12:44:32;28.70;90.30
16136;DHT22;8173;48.354;9.248;2023-06-10T12:47:00;28.20;90.30
16136;DHT22;8173;48.354;9.248;2023-06-10T12:49:26;28.40;91.80
16136;DHT22;8173;48.354;9.248;2023-06-10T12:51:53;28.30;91.90
16136;DHT22;8173;48.354;9.248;2023-06-10T12:54:20;28.50;90.50
16136;DHT22;8173;48.354;9.248;2023-06-10T12:56:48;29.30;91.90
16136;DHT22;8173;48.354;9.248;2023-06-10T12:59:15;28.80;90.00
16136;DHT22;8173;48.354;9.248;2023-06-10T13:01:42;28.50;92.60
16136;DHT22;8173;48.354;9.248;2023-06-10T13:04:09;28.40;91.40
16136;DHT22;8173;48.354;9.248;2023-06-10T13:06:35;27.80;91.50
16136;DHT22;8173;48.354;9.248;2023-06-10T13:09:05;26.90;92.50
16136;DHT22;8173;48.354;9.248;2023-06-10T13:11:32;26.20;94.00
16136;DHT22;8173;48.354;9.248;2023-06-10T13:14:00;25.70;94.20
16136;DHT22;8173;48.354;9.248;2023-06-10T13:16:28;25.30;95.70
16136;DHT22;8173;48.354;9.248;2023-06-10T13:18:55;25.40;96.40
16136;DHT22;8173;48.354;9.248;2023-06-10T13:21:22;25.20;95.70
16136;DHT22;8173;48.354;9.248;2023-06-10T13:23:48;25.90;98.00
16136;DHT22;8173;48.354;9.248;2023-06-10T13:26:16;26.30;94.30
16136;DHT22;8173;48.354;9.248;2023-06-10T13:28:43;26.50;94.20
16136;DHT22;8173;48.354;9.248;2023-06-10T13:31:11;27.30;93.00
16136;DHT22;8173;48.354;9.248;2023-06-10T13:33:38;28.00;93.20
16136;DHT22;8173;48.354;9.248;2023-06-10T13:36:06;27.90;91.90
16136;DHT22;8173;48.354;9.248;2023-06-10T13:38:32;28.50;93.80
16136;DHT22;8173;48.354;9.248;2023-06-10T13:40:59;28.90;91.90
16136;DHT22;8173;48.354;9.248;2023-06-10T13:43:26;29.00;89.50
16136;DHT22;8173;48.354;9.248;2023-06-10T13:45:54;28.80;89.70
16136;DHT22;8173;48.354;9.248;2023-06-10T13:48:22;28.60;89.50
16136;DHT22;8173;48.354;9.248;2023-06-10T13:50:49;28.20;88.50
16136;DHT22;8173;48.354;9.248;2023-06-10T13:53:15;28.40;86.20
16136;DHT22;8173;48.354;9.248;2023-06-10T13:55:42;28.40;85.20
16136;DHT22;8173;48.354;9.248;2023-06-10T13:58:09;28.30;87.70
16136;DHT22;8173;48.354;9.248;2023-06-10T14:00:35;28.50;88.10
16136;DHT22;8173;48.354;9.248;2023-06-10T14:03:02;29.50;89.70
16136;DHT22;8173;48.354;9.248;2023-06-10T14:05:30;29.70;91.50
16136;DHT22;8173;48.354;9.248;2023-06-10T14:07:58;29.70;90.60
16136;DHT22;8173;48.354;9.248;2023-06-10T14:10:25;28.40;90.50
16136;DHT22;8173;48.354;9.248;2023-06-10T14:12:52;27.10;91.80
16136;DHT22;8173;48.354;9.248;2023-06-10T14:15:19;26.50;93.60
16136;DHT22;8173;48.354;9.248;2023-06-10T14:17:46;26.90;93.10
16136;DHT22;8173;48.354;9.248;2023-06-10T14:20:12;27.00;94.50
16136;DHT22;8173;48.354;9.248;2023-06-10T14:22:41;26.80;94.40
16136;DHT22;8173;48.354;9.248;2023-06-10T14:25:08;26.30;94.40
16136;DHT22;8173;48.354;9.248;2023-06-10T14:27:36;25.80;95.20
16136;DHT22;8173;48.354;9.248;2023-06-10T14:30:04;25.20;95.90
16136;DHT22;8173;48.354;9.248;2023-06-10T14:32:31;24.80;97.00
16136;DHT22;8173;48.354;9.248;2023-06-10T14:34:57;24.30;98.40
16136;DHT22;8173;48.354;9.248;2023-06-10T14:37:24;24.30;99.70
16136;DHT22;8173;48.354;9.248;2023-06-10T14:39:52;24.10;99.90
16136;DHT22;8173;48.354;9.248;2023-06-10T14:44:46;24.10;99.90
16136;DHT22;8173;48.354;9.248;2023-06-10T14:47:12;23.90;99.90
16136;DHT22;8173;48.354;9.248;2023-06-10T14:49:39;23.70;99.90
16136;DHT22;8173;48.354;9.248;2023-06-10T14:52:07;24.90;99.90
16136;DHT22;8173;48.354;9.248;2023-06-10T14:54:34;25.00;99.90
16136;DHT22;8173;48.354;9.248;2023-06-10T14:57:02;25.30;99.90
16136;DHT22;8173;48.354;9.248;2023-06-10T14:59:29;25.50;99.90
16136;DHT22;8173;48.354;9.248;2023-06-10T15:04:25;25.90;99.60
16136;DHT22;8173;48.354;9.248;2023-06-10T15:06:52;26.10;99.90
16136;DHT22;8173;48.354;9.248;2023-06-10T15:11:46;27.30;99.20
16136;DHT22;8173;48.354;9.248;2023-06-10T15:14:14;26.90;94.90
16136;DHT22;8173;48.354;9.248;2023-06-10T15:16:41;26.30;95.90
16136;DHT22;8173;48.354;9.248;2023-06-10T15:19:07;25.40;97.50
16136;DHT22;8173;48.354;9.248;2023-06-10T15:21:35;24.80;98.80
16136;DHT22;8173;48.354;9.248;2023-06-10T15:24:01;24.00;99.90
16136;DHT22;8173;48.354;9.248;2023-06-10T15:26:28;23.70;99.90
16136;DHT22;8173;48.354;9.248;2023-06-10T15:28:55;23.40;99.90
16136;DHT22;8173;48.354;9.248;2023-06-10T15:31:23;23.00;99.90
16136;DHT22;8173;48.354;9.248;2023-06-10T15:33:50;23.00;99.90
16136;DHT22;8173;48.354;9.248;2023-06-10T15:36:16;22.90;99.90
16136;DHT22;8173;48.354;9.248;2023-06-10T15:38:43;23.20;99.90
16136;DHT22;8173;48.354;9.248;2023-06-10T15:41:11;23.90;99.90
16136;DHT22;8173;48.354;9.248;2023-06-10T15:43:38;24.50;99.90
16136;DHT22;8173;48.354;9.248;2023-06-10T15:46:05;25.00;99.90
16136;DHT22;8173;48.354;9.248;2023-06-10T15:48:33;25.20;99.90
16136;DHT22;8173;48.354;9.248;2023-06-10T15:51:00;25.30;99.90
16136;DHT22;8173;48.354;9.248;2023-06-10T15:53:26;25.10;99.90
16136;DHT22;8173;48.354;9.248;2023-06-10T15:55:53;25.20;99.90
16136;DHT22;8173;48.354;9.248;2023-06-10T15:58:20;25.10;99.90
16136;DHT22;8173;48.354;9.248;2023-06-10T16:00:47;25.00;99.90
16136;DHT22;8173;48.354;9.248;2023-06-10T16:03:13;25.10;99.90
16136;DHT22;8173;48.354;9.248;2023-06-10T16:05:41;25.20;99.90
16136;DHT22;8173;48.354;9.248;2023-06-10T16:08:08;25.10;99.90